Terminal Aerodrome Forecast
Issued by NWS

Home | Current Version | Previous Version | Text Only | Print | Product List | Glossary On
Versions: 1 2 3 4 5 6 7 8 9 10 11 12 13 14 15 16 17 18 19 20 21 22 23 24 25 26
369
FTUS41 KBUF 101518 AAA
TAFIAG
TAF AMD
KIAG 101518Z 1015/1112 28014G22KT 1 1/2SM -SN BKN010 OVC025
     FM101700 27014G22KT 3SM -SHSN OVC015
     FM102300 27016G24KT 3SM -SHSN OVC040
     FM110300 28015G22KT P6SM VCSH OVC040=

USA.gov is the U.S. government's official web portal to all federal, state and local government web resources and services.